Terminal Aerodrome Forecast
Issued by NWS

Home | Current Version | Previous Version | Text Only | Print | Product List | Glossary On
Versions: 1 2 3 4 5 6 7 8 9 10 11 12 13 14 15 16 17 18 19
000
FTUS43 KDTX 290531
TAFDET
TAF
KDET 290531Z 2906/3006 16008KT P6SM SCT040 OVC060
      TEMPO 2907/2910 3SM -SHSN BKN022 OVC035
     FM291100 19011G19KT P6SM BKN100
     FM291900 20012G19KT P6SM BKN028 OVC040
     FM300000 21014KT P6SM OVC018=

USA.gov is the U.S. government's official web portal to all federal, state and local government web resources and services.